sensor_id;sensor_type;location;lat;lon;timestamp;pressure;altitude;pressure_sealevel;temperature;humidity
71504;BME280;59323;50.874;7.028;2024-03-23T00:56:01;100522.50;;;8.26;100.00
71504;BME280;59323;50.874;7.028;2024-03-23T00:58:26;100519.38;;;8.24;100.00
71504;BME280;59323;50.874;7.028;2024-03-23T01:00:51;100507.69;;;8.20;100.00
71504;BME280;59323;50.874;7.028;2024-03-23T01:03:16;100499.56;;;8.20;100.00
71504;BME280;59323;50.874;7.028;2024-03-23T01:05:44;100505.69;;;8.17;100.00
71504;BME280;59323;50.874;7.028;2024-03-23T01:08:12;100509.59;;;8.19;100.00
71504;BME280;59323;50.874;7.028;2024-03-23T01:10:37;100516.59;;;8.20;100.00
71504;BME280;59323;50.874;7.028;2024-03-23T01:13:03;100513.44;;;8.18;100.00
71504;BME280;59323;50.874;7.028;2024-03-23T01:15:28;100504.13;;;8.16;100.00
71504;BME280;59323;50.874;7.028;2024-03-23T01:17:53;100510.22;;;8.13;100.00
71504;BME280;59323;50.874;7.028;2024-03-23T01:20:19;100501.16;;;8.05;100.00
71504;BME280;59323;50.874;7.028;2024-03-23T01:22:44;100487.66;;;8.05;100.00
71504;BME280;59323;50.874;7.028;2024-03-23T01:25:12;100493.75;;;8.02;100.00
71504;BME280;59323;50.874;7.028;2024-03-23T01:27:38;100489.22;;;8.06;100.00
71504;BME280;59323;50.874;7.028;2024-03-23T01:30:03;100495.47;;;8.10;100.00
71504;BME280;59323;50.874;7.028;2024-03-23T01:32:29;100495.91;;;8.12;100.00
71504;BME280;59323;50.874;7.028;2024-03-23T01:34:54;100490.22;;;8.17;100.00
71504;BME280;59323;50.874;7.028;2024-03-23T01:37:19;100493.38;;;8.19;100.00
71504;BME280;59323;50.874;7.028;2024-03-23T01:39:45;100493.38;;;8.19;100.00
71504;BME280;59323;50.874;7.028;2024-03-23T01:42:10;100508.59;;;8.08;100.00
71504;BME280;59323;50.874;7.028;2024-03-23T01:44:38;100503.56;;;7.91;100.00
71504;BME280;59323;50.874;7.028;2024-03-23T01:47:03;100490.72;;;7.72;100.00
71504;BME280;59323;50.874;7.028;2024-03-23T01:49:28;100494.41;;;7.64;100.00
71504;BME280;59323;50.874;7.028;2024-03-23T01:51:54;100493.00;;;7.54;100.00
71504;BME280;59323;50.874;7.028;2024-03-23T01:54:19;100477.75;;;7.46;100.00
71504;BME280;59323;50.874;7.028;2024-03-23T01:56:45;100484.38;;;7.33;100.00
71504;BME280;59323;50.874;7.028;2024-03-23T01:59:10;100473.56;;;7.33;100.00
71504;BME280;59323;50.874;7.028;2024-03-23T02:01:36;100482.47;;;7.34;100.00
71504;BME280;59323;50.874;7.028;2024-03-23T02:04:04;100479.31;;;7.31;100.00
71504;BME280;59323;50.874;7.028;2024-03-23T02:06:33;100476.19;;;7.29;100.00
71504;BME280;59323;50.874;7.028;2024-03-23T02:08:58;100469.91;;;7.25;100.00
71504;BME280;59323;50.874;7.028;2024-03-23T02:11:24;100471.72;;;7.21;100.00
71504;BME280;59323;50.874;7.028;2024-03-23T02:13:50;100481.66;;;7.17;100.00
71504;BME280;59323;50.874;7.028;2024-03-23T02:16:15;100478.41;;;7.12;100.00
71504;BME280;59323;50.874;7.028;2024-03-23T02:18:40;100479.53;;;7.11;100.00
71504;BME280;59323;50.874;7.028;2024-03-23T02:21:08;100479.88;;;7.09;100.00
71504;BME280;59323;50.874;7.028;2024-03-23T02:23:33;100482.16;;;7.07;100.00
71504;BME280;59323;50.874;7.028;2024-03-23T02:25:59;100488.69;;;7.06;100.00
71504;BME280;59323;50.874;7.028;2024-03-23T02:28:24;100485.28;;;7.09;100.00
71504;BME280;59323;50.874;7.028;2024-03-23T02:30:50;100485.63;;;7.08;100.00
71504;BME280;59323;50.874;7.028;2024-03-23T02:33:15;100483.97;;;7.03;100.00
71504;BME280;59323;50.874;7.028;2024-03-23T02:35:41;100482.41;;;7.02;100.00
71504;BME280;59323;50.874;7.028;2024-03-23T02:38:06;100483.00;;;6.95;100.00
71504;BME280;59323;50.874;7.028;2024-03-23T02:40:32;100484.81;;;6.91;100.00
71504;BME280;59323;50.874;7.028;2024-03-23T02:42:57;100490.91;;;6.88;100.00
71504;BME280;59323;50.874;7.028;2024-03-23T02:45:25;100481.69;;;6.89;100.00
71504;BME280;59323;50.874;7.028;2024-03-23T02:47:50;100485.06;;;6.86;100.00
71504;BME280;59323;50.874;7.028;2024-03-23T02:50:18;100494.31;;;6.85;100.00
71504;BME280;59323;50.874;7.028;2024-03-23T02:52:43;100511.41;;;6.89;100.00
71504;BME280;59323;50.874;7.028;2024-03-23T02:55:09;100527.06;;;6.84;100.00
71504;BME280;59323;50.874;7.028;2024-03-23T02:57:34;100527.66;;;6.77;100.00
71504;BME280;59323;50.874;7.028;2024-03-23T03:00:00;100526.66;;;6.70;100.00
71504;BME280;59323;50.874;7.028;2024-03-23T03:02:25;100514.44;;;6.60;100.00
71504;BME280;59323;50.874;7.028;2024-03-23T03:04:53;100515.81;;;6.54;100.00
71504;BME280;59323;50.874;7.028;2024-03-23T03:07:23;100514.44;;;6.48;100.00
71504;BME280;59323;50.874;7.028;2024-03-23T03:09:49;100507.38;;;6.43;100.00
71504;BME280;59323;50.874;7.028;2024-03-23T03:12:16;100509.97;;;6.40;100.00
71504;BME280;59323;50.874;7.028;2024-03-23T03:14:41;100510.56;;;6.33;100.00
71504;BME280;59323;50.874;7.028;2024-03-23T03:17:07;100504.16;;;6.25;100.00
71504;BME280;59323;50.874;7.028;2024-03-23T03:19:35;100506.75;;;6.22;100.00
71504;BME280;59323;50.874;7.028;2024-03-23T03:22:03;100503.16;;;6.18;100.00
71504;BME280;59323;50.874;7.028;2024-03-23T03:24:29;100489.47;;;6.11;100.00
71504;BME280;59323;50.874;7.028;2024-03-23T03:26:58;100497.44;;;6.07;100.00
71504;BME280;59323;50.874;7.028;2024-03-23T03:29:26;100507.91;;;6.09;100.00
71504;BME280;59323;50.874;7.028;2024-03-23T03:31:51;100514.66;;;6.02;100.00
71504;BME280;59323;50.874;7.028;2024-03-23T03:34:16;100510.38;;;6.01;100.00
71504;BME280;59323;50.874;7.028;2024-03-23T03:36:44;100506.44;;;5.99;100.00
71504;BME280;59323;50.874;7.028;2024-03-23T03:39:09;100496.44;;;5.99;100.00
71504;BME280;59323;50.874;7.028;2024-03-23T03:41:35;100496.78;;;5.98;100.00
71504;BME280;59323;50.874;7.028;2024-03-23T03:44:02;100502.88;;;5.95;100.00
71504;BME280;59323;50.874;7.028;2024-03-23T03:46:28;100496.91;;;5.89;100.00
71504;BME280;59323;50.874;7.028;2024-03-23T03:48:54;100508.16;;;5.91;100.00
71504;BME280;59323;50.874;7.028;2024-03-23T03:51:22;100513.75;;;5.98;100.00
71504;BME280;59323;50.874;7.028;2024-03-23T03:53:47;100520.03;;;6.02;100.00
71504;BME280;59323;50.874;7.028;2024-03-23T03:56:13;100518.13;;;6.03;100.00
71504;BME280;59323;50.874;7.028;2024-03-23T03:58:40;100517.69;;;6.01;100.00
71504;BME280;59323;50.874;7.028;2024-03-23T04:01:06;100509.81;;;6.08;100.00
71504;BME280;59323;50.874;7.028;2024-03-23T04:03:34;100506.00;;;6.09;100.00
71504;BME280;59323;50.874;7.028;2024-03-23T04:05:59;100512.97;;;6.10;100.00
71504;BME280;59323;50.874;7.028;2024-03-23T04:08:24;100508.91;;;6.16;100.00
71504;BME280;59323;50.874;7.028;2024-03-23T04:10:52;100518.56;;;6.17;100.00
71504;BME280;59323;50.874;7.028;2024-03-23T04:13:17;100524.06;;;6.21;100.00
71504;BME280;59323;50.874;7.028;2024-03-23T04:15:43;100516.88;;;6.25;100.00
71504;BME280;59323;50.874;7.028;2024-03-23T04:18:08;100530.81;;;6.27;100.00
71504;BME280;59323;50.874;7.028;2024-03-23T04:20:33;100529.69;;;6.28;100.00
71504;BME280;59323;50.874;7.028;2024-03-23T04:23:02;100522.38;;;6.28;100.00
71504;BME280;59323;50.874;7.028;2024-03-23T04:25:27;100520.91;;;6.31;100.00
71504;BME280;59323;50.874;7.028;2024-03-23T04:27:53;100526.75;;;6.33;100.00
71504;BME280;59323;50.874;7.028;2024-03-23T04:30:18;100535.63;;;6.33;100.00
71504;BME280;59323;50.874;7.028;2024-03-23T04:32:44;100539.91;;;6.34;100.00
71504;BME280;59323;50.874;7.028;2024-03-23T04:35:09;100542.16;;;6.32;100.00
71504;BME280;59323;50.874;7.028;2024-03-23T04:37:36;100539.91;;;6.34;100.00
71504;BME280;59323;50.874;7.028;2024-03-23T04:40:02;100544.94;;;6.36;100.00
71504;BME280;59323;50.874;7.028;2024-03-23T04:42:31;100548.66;;;6.31;100.00
71504;BME280;59323;50.874;7.028;2024-03-23T04:44:57;100548.66;;;6.31;100.00
71504;BME280;59323;50.874;7.028;2024-03-23T04:47:24;100554.75;;;6.28;100.00
71504;BME280;59323;50.874;7.028;2024-03-23T04:49:49;100547.09;;;6.30;100.00
71504;BME280;59323;50.874;7.028;2024-03-23T04:52:16;100555.19;;;6.30;100.00
71504;BME280;59323;50.874;7.028;2024-03-23T04:54:41;100545.97;;;6.31;100.00
71504;BME280;59323;50.874;7.028;2024-03-23T04:57:28;100541.69;;;6.30;100.00
71504;BME280;59323;50.874;7.028;2024-03-23T05:27:20;100543.97;;;6.16;100.00
71504;BME280;59323;50.874;7.028;2024-03-23T05:29:45;100545.78;;;6.12;100.00
71504;BME280;59323;50.874;7.028;2024-03-23T05:32:10;100546.91;;;6.11;100.00
71504;BME280;59323;50.874;7.028;2024-03-23T05:34:36;100543.53;;;6.02;100.00
71504;BME280;59323;50.874;7.028;2024-03-23T05:37:01;100557.91;;;6.06;100.00
71504;BME280;59323;50.874;7.028;2024-03-23T05:39:27;100552.63;;;5.97;100.00
71504;BME280;59323;50.874;7.028;2024-03-23T05:41:52;100544.78;;;5.92;100.00
71504;BME280;59323;50.874;7.028;2024-03-23T05:44:18;100526.88;;;5.88;100.00
71504;BME280;59323;50.874;7.028;2024-03-23T05:46:43;100537.81;;;5.91;100.00
71504;BME280;59323;50.874;7.028;2024-03-23T05:49:13;100535.91;;;5.92;100.00
71504;BME280;59323;50.874;7.028;2024-03-23T05:51:39;100536.69;;;5.92;100.00
71504;BME280;59323;50.874;7.028;2024-03-23T05:54:04;100535.63;;;5.85;100.00
71504;BME280;59323;50.874;7.028;2024-03-23T05:56:31;100542.13;;;5.84;100.00
71504;BME280;59323;50.874;7.028;2024-03-23T05:58:56;100550.22;;;5.84;100.00
71504;BME280;59323;50.874;7.028;2024-03-23T06:01:21;100549.78;;;5.82;100.00
71504;BME280;59323;50.874;7.028;2024-03-23T06:03:47;100554.72;;;5.80;100.00
71504;BME280;59323;50.874;7.028;2024-03-23T06:06:12;100562.13;;;5.83;100.00
71504;BME280;59323;50.874;7.028;2024-03-23T06:08:38;100563.25;;;5.82;100.00
71504;BME280;59323;50.874;7.028;2024-03-23T06:11:04;100563.69;;;5.84;100.00
71504;BME280;59323;50.874;7.028;2024-03-23T06:13:31;100560.22;;;5.83;100.00
71504;BME280;59323;50.874;7.028;2024-03-23T06:15:56;100558.97;;;5.81;100.00
71504;BME280;59323;50.874;7.028;2024-03-23T06:18:22;100558.53;;;5.79;100.00
71504;BME280;59323;50.874;7.028;2024-03-23T06:20:47;100559.66;;;5.78;100.00
71504;BME280;59323;50.874;7.028;2024-03-23T06:23:13;100552.91;;;5.71;100.00
71504;BME280;59323;50.874;7.028;2024-03-23T06:25:39;100557.50;;;5.71;100.00
71504;BME280;59323;50.874;7.028;2024-03-23T06:28:05;100560.53;;;5.69;100.00
71504;BME280;59323;50.874;7.028;2024-03-23T06:30:30;100555.16;;;5.69;100.00
71504;BME280;59323;50.874;7.028;2024-03-23T06:32:57;100552.34;;;5.66;100.00
71504;BME280;59323;50.874;7.028;2024-03-23T06:35:22;100563.34;;;5.73;100.00
71504;BME280;59323;50.874;7.028;2024-03-23T06:37:48;100560.22;;;5.71;100.00
71504;BME280;59323;50.874;7.028;2024-03-23T06:40:13;100560.00;;;5.76;100.00
71504;BME280;59323;50.874;7.028;2024-03-23T06:42:38;100571.47;;;5.85;100.00
71504;BME280;59323;50.874;7.028;2024-03-23T06:45:05;100576.81;;;5.94;100.00
71504;BME280;59323;50.874;7.028;2024-03-23T06:47:31;100577.13;;;6.04;100.00
71504;BME280;59323;50.874;7.028;2024-03-23T06:49:56;100583.31;;;6.17;100.00
71504;BME280;59323;50.874;7.028;2024-03-23T06:52:21;100585.56;;;6.27;100.00
71504;BME280;59323;50.874;7.028;2024-03-23T06:54:47;100585.66;;;6.43;100.00
71504;BME280;59323;50.874;7.028;2024-03-23T06:57:12;100576.19;;;6.49;100.00
71504;BME280;59323;50.874;7.028;2024-03-23T06:59:38;100577.53;;;6.67;100.00
71504;BME280;59323;50.874;7.028;2024-03-23T07:02:04;100578.03;;;6.85;100.00
71504;BME280;59323;50.874;7.028;2024-03-23T07:04:30;100584.28;;;7.02;100.00
71504;BME280;59323;50.874;7.028;2024-03-23T07:06:55;100584.91;;;7.11;100.00
71504;BME280;59323;50.874;7.028;2024-03-23T07:09:21;100582.38;;;7.30;100.00
71504;BME280;59323;50.874;7.028;2024-03-23T07:11:51;100578.56;;;7.47;100.00
71504;BME280;59323;50.874;7.028;2024-03-23T07:14:16;100586.44;;;7.68;100.00
71504;BME280;59323;50.874;7.028;2024-03-23T07:16:41;100586.19;;;7.88;100.00
71504;BME280;59323;50.874;7.028;2024-03-23T07:19:07;100596.75;;;8.09;100.00
71504;BME280;59323;50.874;7.028;2024-03-23T07:21:32;100594.66;;;8.18;100.00
71504;BME280;59323;50.874;7.028;2024-03-23T07:23:57;100598.66;;;8.40;100.00
71504;BME280;59323;50.874;7.028;2024-03-23T07:26:23;100595.50;;;8.54;100.00
71504;BME280;59323;50.874;7.028;2024-03-23T07:28:48;100598.31;;;8.77;100.00
71504;BME280;59323;50.874;7.028;2024-03-23T07:31:14;100602.53;;;8.94;100.00
71504;BME280;59323;50.874;7.028;2024-03-23T07:33:45;100608.53;;;9.22;100.00
71504;BME280;59323;50.874;7.028;2024-03-23T07:36:10;100599.41;;;9.30;100.00
71504;BME280;59323;50.874;7.028;2024-03-23T07:38:36;100600.56;;;9.52;100.00
71504;BME280;59323;50.874;7.028;2024-03-23T07:41:05;100599.09;;;9.77;100.00
71504;BME280;59323;50.874;7.028;2024-03-23T07:43:31;100597.94;;;10.01;100.00
71504;BME280;59323;50.874;7.028;2024-03-23T07:45:56;100603.44;;;10.28;100.00
71504;BME280;59323;50.874;7.028;2024-03-23T07:48:22;100600.72;;;10.54;100.00
71504;BME280;59323;50.874;7.028;2024-03-23T07:51:03;100606.19;;;10.84;100.00
71504;BME280;59323;50.874;7.028;2024-03-23T07:53:39;100614.56;;;11.02;100.00
71504;BME280;59323;50.874;7.028;2024-03-23T07:56:08;100621.25;;;11.08;100.00
71504;BME280;59323;50.874;7.028;2024-03-23T07:58:35;100613.81;;;11.05;100.00
71504;BME280;59323;50.874;7.028;2024-03-23T08:01:09;100619.00;;;11.14;100.00
71504;BME280;59323;50.874;7.028;2024-03-23T08:03:38;100611.56;;;11.10;100.00
71504;BME280;59323;50.874;7.028;2024-03-23T08:08:37;100606.72;;;10.97;100.00
71504;BME280;59323;50.874;7.028;2024-03-23T08:11:03;100618.53;;;11.08;100.00
71504;BME280;59323;50.874;7.028;2024-03-23T08:13:29;100622.78;;;11.05;100.00
71504;BME280;59323;50.874;7.028;2024-03-23T08:15:59;100621.97;;;11.05;100.00
71504;BME280;59323;50.874;7.028;2024-03-23T08:54:37;100640.41;;;9.90;96.26
71504;BME280;59323;50.874;7.028;2024-03-23T08:57:29;100651.03;;;9.99;96.81
71504;BME280;59323;50.874;7.028;2024-03-23T09:08:18;100626.09;;;10.39;100.00
71504;BME280;59323;50.874;7.028;2024-03-23T09:11:23;100625.25;;;10.35;97.94
71504;BME280;59323;50.874;7.028;2024-03-23T09:14:06;100622.19;;;10.63;98.94
71504;BME280;59323;50.874;7.028;2024-03-23T09:16:41;100614.16;;;10.70;97.93
71504;BME280;59323;50.874;7.028;2024-03-23T09:19:29;100622.94;;;10.90;97.43
71504;BME280;59323;50.874;7.028;2024-03-23T09:21:55;100621.94;;;11.01;97.16
71504;BME280;59323;50.874;7.028;2024-03-23T09:24:24;100614.13;;;11.00;94.39
71504;BME280;59323;50.874;7.028;2024-03-23T09:26:51;100600.38;;;10.86;95.43
71504;BME280;59323;50.874;7.028;2024-03-23T09:29:17;100610.81;;;10.84;97.21
71504;BME280;59323;50.874;7.028;2024-03-23T09:31:42;100606.53;;;10.83;98.07
71504;BME280;59323;50.874;7.028;2024-03-23T09:34:08;100603.31;;;10.73;96.58
71504;BME280;59323;50.874;7.028;2024-03-23T09:36:33;100614.16;;;10.70;97.22
71504;BME280;59323;50.874;7.028;2024-03-23T09:38:59;100599.16;;;10.53;97.98
71504;BME280;59323;50.874;7.028;2024-03-23T09:41:24;100610.06;;;10.30;97.91
71504;BME280;59323;50.874;7.028;2024-03-23T09:43:52;100610.50;;;10.09;99.48
71504;BME280;59323;50.874;7.028;2024-03-23T09:46:18;100610.25;;;9.95;100.00
71504;BME280;59323;50.874;7.028;2024-03-23T09:48:46;100598.25;;;9.96;100.00
71504;BME280;59323;50.874;7.028;2024-03-23T09:51:11;100600.00;;;9.85;98.34
71504;BME280;59323;50.874;7.028;2024-03-23T09:53:37;100606.88;;;9.79;98.01
71504;BME280;59323;50.874;7.028;2024-03-23T09:56:03;100608.97;;;9.66;96.50
71504;BME280;59323;50.874;7.028;2024-03-23T09:58:30;100607.13;;;9.93;98.61
71504;BME280;59323;50.874;7.028;2024-03-23T10:00:57;100598.94;;;10.16;96.90
71504;BME280;59323;50.874;7.028;2024-03-23T10:03:22;100604.31;;;10.35;94.23
71504;BME280;59323;50.874;7.028;2024-03-23T10:06:00;100600.22;;;10.75;99.61
71504;BME280;59323;50.874;7.028;2024-03-23T10:08:25;100607.25;;;11.06;95.80
71504;BME280;59323;50.874;7.028;2024-03-23T10:10:51;100583.81;;;11.31;92.38
71504;BME280;59323;50.874;7.028;2024-03-23T10:13:26;100592.25;;;11.19;85.83
71504;BME280;59323;50.874;7.028;2024-03-23T10:15:56;100597.50;;;11.05;83.86
71504;BME280;59323;50.874;7.028;2024-03-23T10:18:23;100598.09;;;10.91;82.35
71504;BME280;59323;50.874;7.028;2024-03-23T10:23:41;100606.25;;;10.61;84.52
71504;BME280;59323;50.874;7.028;2024-03-23T10:26:20;100596.03;;;10.51;82.38
71504;BME280;59323;50.874;7.028;2024-03-23T10:31:33;100597.03;;;10.16;83.56
71504;BME280;59323;50.874;7.028;2024-03-23T10:34:01;100599.09;;;10.00;81.93
71504;BME280;59323;50.874;7.028;2024-03-23T10:36:26;100620.53;;;9.82;85.54
71504;BME280;59323;50.874;7.028;2024-03-23T10:38:54;100641.75;;;9.58;91.25
71504;BME280;59323;50.874;7.028;2024-03-23T10:41:20;100634.00;;;9.17;94.08
71504;BME280;59323;50.874;7.028;2024-03-23T10:43:48;100646.13;;;8.69;97.73
71504;BME280;59323;50.874;7.028;2024-03-23T10:46:14;100649.22;;;8.36;100.00
71504;BME280;59323;50.874;7.028;2024-03-23T10:48:40;100642.22;;;8.19;100.00
71504;BME280;59323;50.874;7.028;2024-03-23T10:51:08;100641.72;;;8.14;100.00
71504;BME280;59323;50.874;7.028;2024-03-23T10:53:35;100644.75;;;8.12;100.00
71504;BME280;59323;50.874;7.028;2024-03-23T10:56:04;100644.06;;;8.15;100.00
71504;BME280;59323;50.874;7.028;2024-03-23T10:58:37;100639.53;;;8.19;100.00
71504;BME280;59323;50.874;7.028;2024-03-23T11:01:03;100633.84;;;8.24;100.00
71504;BME280;59323;50.874;7.028;2024-03-23T11:03:33;100631.16;;;8.40;100.00
71504;BME280;59323;50.874;7.028;2024-03-23T11:06:02;100637.78;;;8.58;100.00
71504;BME280;59323;50.874;7.028;2024-03-23T11:08:38;100626.50;;;8.92;100.00
71504;BME280;59323;50.874;7.028;2024-03-23T11:11:20;100638.75;;;9.05;100.00
71504;BME280;59323;50.874;7.028;2024-03-23T11:13:50;100621.53;;;9.13;100.00
71504;BME280;59323;50.874;7.028;2024-03-23T11:16:27;100618.88;;;9.36;100.00
71504;BME280;59323;50.874;7.028;2024-03-23T11:19:34;100618.47;;;9.57;100.00
71504;BME280;59323;50.874;7.028;2024-03-23T11:22:02;100610.75;;;9.78;100.00
71504;BME280;59323;50.874;7.028;2024-03-23T11:24:32;100602.13;;;9.95;100.00
71504;BME280;59323;50.874;7.028;2024-03-23T11:27:00;100601.81;;;10.00;100.00
71504;BME280;59323;50.874;7.028;2024-03-23T11:29:29;100596.06;;;10.05;100.00
71504;BME280;59323;50.874;7.028;2024-03-23T11:31:55;100596.03;;;10.02;99.72
71504;BME280;59323;50.874;7.028;2024-03-23T11:34:21;100581.97;;;9.96;97.92
71504;BME280;59323;50.874;7.028;2024-03-23T11:36:50;100580.22;;;9.84;97.11
71504;BME280;59323;50.874;7.028;2024-03-23T11:39:19;100580.75;;;9.71;98.02
71504;BME280;59323;50.874;7.028;2024-03-23T11:41:49;100594.19;;;9.64;97.62
71504;BME280;59323;50.874;7.028;2024-03-23T11:44:18;100588.94;;;9.51;98.37
71504;BME280;59323;50.874;7.028;2024-03-23T11:46:45;100577.97;;;9.44;98.92
71504;BME280;59323;50.874;7.028;2024-03-23T11:49:26;100579.53;;;9.45;100.00
71504;BME280;59323;50.874;7.028;2024-03-23T11:52:04;100590.94;;;9.54;100.00
71504;BME280;59323;50.874;7.028;2024-03-23T11:54:37;100589.19;;;9.66;99.66
71504;BME280;59323;50.874;7.028;2024-03-23T11:57:04;100584.81;;;9.80;96.99
71504;BME280;59323;50.874;7.028;2024-03-23T11:59:37;100582.63;;;9.90;100.00
71504;BME280;59323;50.874;7.028;2024-03-23T12:02:09;100583.59;;;10.01;98.90
71504;BME280;59323;50.874;7.028;2024-03-23T12:04:36;100587.63;;;10.10;97.12
71504;BME280;59323;50.874;7.028;2024-03-23T12:07:31;100597.41;;;9.92;92.25
71504;BME280;59323;50.874;7.028;2024-03-23T12:10:06;100596.88;;;9.41;90.75
71504;BME280;59323;50.874;7.028;2024-03-23T12:12:31;100585.56;;;8.97;92.60
71504;BME280;59323;50.874;7.028;2024-03-23T12:15:12;100584.63;;;8.70;93.78
71504;BME280;59323;50.874;7.028;2024-03-23T12:17:42;100598.59;;;8.72;96.65
71504;BME280;59323;50.874;7.028;2024-03-23T12:20:10;100582.06;;;8.77;99.49
71504;BME280;59323;50.874;7.028;2024-03-23T12:22:37;100567.66;;;8.92;96.52
71504;BME280;59323;50.874;7.028;2024-03-23T12:25:03;100571.28;;;9.00;99.89
71504;BME280;59323;50.874;7.028;2024-03-23T12:27:31;100569.38;;;9.00;95.86
71504;BME280;59323;50.874;7.028;2024-03-23T12:29:56;100589.97;;;9.05;97.53
71504;BME280;59323;50.874;7.028;2024-03-23T12:32:24;100585.63;;;9.00;99.66
71504;BME280;59323;50.874;7.028;2024-03-23T12:34:49;100616.88;;;8.94;98.58
71504;BME280;59323;50.874;7.028;2024-03-23T12:37:14;100623.53;;;8.62;99.33
71504;BME280;59323;50.874;7.028;2024-03-23T12:39:42;100642.03;;;8.28;100.00
71504;BME280;59323;50.874;7.028;2024-03-23T12:42:07;100634.63;;;7.93;100.00
71504;BME280;59323;50.874;7.028;2024-03-23T12:44:33;100631.91;;;7.78;100.00
71504;BME280;59323;50.874;7.028;2024-03-23T12:46:58;100643.66;;;7.70;100.00
71504;BME280;59323;50.874;7.028;2024-03-23T12:49:23;100618.53;;;7.69;100.00
71504;BME280;59323;50.874;7.028;2024-03-23T12:51:56;100626.03;;;7.60;100.00
71504;BME280;59323;50.874;7.028;2024-03-23T12:54:25;100615.03;;;7.53;100.00
71504;BME280;59323;50.874;7.028;2024-03-23T12:56:53;100618.44;;;7.66;100.00
71504;BME280;59323;50.874;7.028;2024-03-23T12:59:23;100617.06;;;7.72;100.00
71504;BME280;59323;50.874;7.028;2024-03-23T13:01:54;100610.69;;;7.80;100.00
71504;BME280;59323;50.874;7.028;2024-03-23T13:04:20;100618.53;;;7.69;100.00
71504;BME280;59323;50.874;7.028;2024-03-23T13:06:48;100617.16;;;7.75;100.00
71504;BME280;59323;50.874;7.028;2024-03-23T13:09:14;100617.59;;;7.77;100.00
71504;BME280;59323;50.874;7.028;2024-03-23T13:11:39;100622.22;;;7.77;100.00
71504;BME280;59323;50.874;7.028;2024-03-23T13:14:04;100616.44;;;7.78;96.32
71504;BME280;59323;50.874;7.028;2024-03-23T13:16:32;100604.63;;;7.83;97.99
71504;BME280;59323;50.874;7.028;2024-03-23T13:18:58;100587.59;;;7.82;94.09
71504;BME280;59323;50.874;7.028;2024-03-23T13:21:23;100582.97;;;7.99;97.24
71504;BME280;59323;50.874;7.028;2024-03-23T13:23:51;100592.22;;;8.13;95.69
71504;BME280;59323;50.874;7.028;2024-03-23T13:26:16;100587.31;;;8.19;90.58
71504;BME280;59323;50.874;7.028;2024-03-23T13:28:42;100587.56;;;8.30;95.73
71504;BME280;59323;50.874;7.028;2024-03-23T13:31:07;100575.69;;;8.50;100.00
71504;BME280;59323;50.874;7.028;2024-03-23T13:33:42;100576.41;;;8.66;94.06
71504;BME280;59323;50.874;7.028;2024-03-23T13:36:09;100576.84;;;8.87;90.72
71504;BME280;59323;50.874;7.028;2024-03-23T13:38:36;100566.72;;;9.04;92.79
71504;BME280;59323;50.874;7.028;2024-03-23T13:41:02;100568.34;;;9.08;95.25
71504;BME280;59323;50.874;7.028;2024-03-23T13:43:32;100558.31;;;9.09;93.75
71504;BME280;59323;50.874;7.028;2024-03-23T13:45:58;100568.34;;;9.08;89.60
71504;BME280;59323;50.874;7.028;2024-03-23T13:48:26;100559.81;;;9.06;92.85
71504;BME280;59323;50.874;7.028;2024-03-23T13:51:04;100561.66;;;9.02;90.36
71504;BME280;59323;50.874;7.028;2024-03-23T13:53:30;100556.59;;;9.01;88.20
71504;BME280;59323;50.874;7.028;2024-03-23T13:55:56;100552.38;;;9.03;90.46
71504;BME280;59323;50.874;7.028;2024-03-23T13:58:21;100556.59;;;9.01;85.74
71504;BME280;59323;50.874;7.028;2024-03-23T14:00:47;100560.81;;;8.98;86.34
71504;BME280;59323;50.874;7.028;2024-03-23T14:03:13;100558.75;;;8.92;90.04
71504;BME280;59323;50.874;7.028;2024-03-23T14:05:39;100551.69;;;8.87;93.80
71504;BME280;59323;50.874;7.028;2024-03-23T14:08:09;100551.25;;;8.85;92.17
71504;BME280;59323;50.874;7.028;2024-03-23T14:10:35;100564.66;;;8.78;92.66
71504;BME280;59323;50.874;7.028;2024-03-23T14:13:02;100583.97;;;8.57;92.82
71504;BME280;59323;50.874;7.028;2024-03-23T14:15:30;100589.31;;;8.22;88.62
71504;BME280;59323;50.874;7.028;2024-03-23T14:17:55;100586.91;;;8.01;92.01
71504;BME280;59323;50.874;7.028;2024-03-23T14:20:22;100572.22;;;7.71;93.56
71504;BME280;59323;50.874;7.028;2024-03-23T14:22:48;100553.25;;;7.39;92.18
71504;BME280;59323;50.874;7.028;2024-03-23T14:25:14;100548.88;;;7.19;97.36
71504;BME280;59323;50.874;7.028;2024-03-23T14:27:46;100559.91;;;7.14;99.17
71504;BME280;59323;50.874;7.028;2024-03-23T14:30:12;100561.47;;;7.15;97.89
71504;BME280;59323;50.874;7.028;2024-03-23T14:32:40;100550.78;;;7.18;100.00
71504;BME280;59323;50.874;7.028;2024-03-23T14:35:06;100542.78;;;7.22;98.24
71504;BME280;59323;50.874;7.028;2024-03-23T14:37:39;100542.88;;;7.25;100.00
71504;BME280;59323;50.874;7.028;2024-03-23T14:40:07;100546.81;;;7.28;100.00
71504;BME280;59323;50.874;7.028;2024-03-23T14:42:32;100551.59;;;7.35;100.00
71504;BME280;59323;50.874;7.028;2024-03-23T14:44:58;100559.09;;;7.41;100.00
71504;BME280;59323;50.874;7.028;2024-03-23T14:47:23;100567.41;;;7.48;100.00
71504;BME280;59323;50.874;7.028;2024-03-23T14:49:49;100567.94;;;7.54;100.00
71504;BME280;59323;50.874;7.028;2024-03-23T14:52:21;100563.06;;;7.59;100.00
71504;BME280;59323;50.874;7.028;2024-03-23T14:54:49;100562.34;;;7.62;100.00
71504;BME280;59323;50.874;7.028;2024-03-23T14:57:14;100559.75;;;7.66;100.00
71504;BME280;59323;50.874;7.028;2024-03-23T14:59:39;100568.28;;;7.68;100.00
71504;BME280;59323;50.874;7.028;2024-03-23T15:02:06;100572.56;;;7.69;100.00
71504;BME280;59323;50.874;7.028;2024-03-23T15:04:32;100613.03;;;7.66;100.00
71504;BME280;59323;50.874;7.028;2024-03-23T15:06:57;100634.66;;;7.50;100.00
71504;BME280;59323;50.874;7.028;2024-03-23T15:09:22;100652.19;;;6.88;99.70